sensor_id;sensor_type;location;lat;lon;timestamp;pressure;altitude;pressure_sealevel;temperature;humidity
48267;BME280;34088;52.232;5.196;2024-02-14T00:01:19;101278.22;;;8.14;100.00
48267;BME280;34088;52.232;5.196;2024-02-14T00:03:45;101270.47;;;8.16;100.00
48267;BME280;34088;52.232;5.196;2024-02-14T00:06:10;101281.63;;;8.16;100.00
48267;BME280;34088;52.232;5.196;2024-02-14T00:08:37;101268.78;;;8.13;100.00
48267;BME280;34088;52.232;5.196;2024-02-14T00:11:03;101278.13;;;8.23;100.00
48267;BME280;34088;52.232;5.196;2024-02-14T00:13:28;101270.31;;;8.26;100.00
48267;BME280;34088;52.232;5.196;2024-02-14T00:15:54;101261.66;;;8.29;100.00
48267;BME280;34088;52.232;5.196;2024-02-14T00:18:19;101261.69;;;8.26;100.00
48267;BME280;34088;52.232;5.196;2024-02-14T00:32:43;101242.69;;;8.33;100.00
48267;BME280;34088;52.232;5.196;2024-02-14T00:35:08;101248.66;;;8.35;100.00
48267;BME280;34088;52.232;5.196;2024-02-14T00:37:33;101245.19;;;8.36;100.00
48267;BME280;34088;52.232;5.196;2024-02-14T00:39:59;101241.78;;;8.34;100.00
48267;BME280;34088;52.232;5.196;2024-02-14T00:42:25;101241.69;;;8.40;100.00
48267;BME280;34088;52.232;5.196;2024-02-14T00:44:50;101234.03;;;8.35;100.00
48267;BME280;34088;52.232;5.196;2024-02-14T00:47:16;101238.13;;;8.45;100.00
48267;BME280;34088;52.232;5.196;2024-02-14T00:49:41;101230.31;;;8.48;100.00
48267;BME280;34088;52.232;5.196;2024-02-14T00:52:07;101238.91;;;8.49;100.00
48267;BME280;34088;52.232;5.196;2024-02-14T00:54:32;101227.66;;;8.53;100.00
48267;BME280;34088;52.232;5.196;2024-02-14T00:56:57;101231.88;;;8.57;100.00
48267;BME280;34088;52.232;5.196;2024-02-14T00:59:23;101228.31;;;8.62;100.00
48267;BME280;34088;52.232;5.196;2024-02-14T01:01:49;101224.84;;;8.63;100.00
48267;BME280;34088;52.232;5.196;2024-02-14T01:04:15;101234.22;;;8.67;100.00
48267;BME280;34088;52.232;5.196;2024-02-14T01:06:40;101221.22;;;8.72;100.00
48267;BME280;34088;52.232;5.196;2024-02-14T01:09:05;101220.28;;;8.76;100.00
48267;BME280;34088;52.232;5.196;2024-02-14T01:11:31;101223.66;;;8.78;100.00
48267;BME280;34088;52.232;5.196;2024-02-14T01:13:56;101215.00;;;8.80;100.00
48267;BME280;34088;52.232;5.196;2024-02-14T01:16:24;101216.66;;;8.84;100.00
48267;BME280;34088;52.232;5.196;2024-02-14T01:18:49;101219.13;;;8.89;100.00
48267;BME280;34088;52.232;5.196;2024-02-14T01:21:14;101214.84;;;8.88;100.00
48267;BME280;34088;52.232;5.196;2024-02-14T01:23:40;101212.25;;;8.89;100.00
48267;BME280;34088;52.232;5.196;2024-02-14T01:26:05;101213.13;;;8.88;100.00
48267;BME280;34088;52.232;5.196;2024-02-14T01:28:31;101221.59;;;8.95;100.00
48267;BME280;34088;52.232;5.196;2024-02-14T01:30:57;101215.47;;;8.99;100.00
48267;BME280;34088;52.232;5.196;2024-02-14T01:33:23;101225.81;;;8.99;100.00
48267;BME280;34088;52.232;5.196;2024-02-14T01:35:48;101230.91;;;9.02;100.00
48267;BME280;34088;52.232;5.196;2024-02-14T01:38:13;101222.34;;;9.00;100.00
48267;BME280;34088;52.232;5.196;2024-02-14T01:40:41;101221.41;;;9.04;100.00
48267;BME280;34088;52.232;5.196;2024-02-14T01:43:07;101213.78;;;8.98;100.00
48267;BME280;34088;52.232;5.196;2024-02-14T01:45:33;101224.00;;;9.02;100.00
48267;BME280;34088;52.232;5.196;2024-02-14T01:47:58;101213.69;;;9.01;100.00
48267;BME280;34088;52.232;5.196;2024-02-14T01:50:24;101220.50;;;9.05;100.00
48267;BME280;34088;52.232;5.196;2024-02-14T01:52:56;101226.41;;;9.10;100.00
48267;BME280;34088;52.232;5.196;2024-02-14T01:55:24;101228.06;;;9.14;100.00
48267;BME280;34088;52.232;5.196;2024-02-14T01:57:51;101223.75;;;9.13;100.00
48267;BME280;34088;52.232;5.196;2024-02-14T02:00:16;101230.50;;;9.20;100.00
48267;BME280;34088;52.232;5.196;2024-02-14T02:02:43;101236.44;;;9.23;100.00
48267;BME280;34088;52.232;5.196;2024-02-14T02:05:09;101239.03;;;9.23;100.00
48267;BME280;34088;52.232;5.196;2024-02-14T02:07:35;101232.97;;;9.24;100.00
48267;BME280;34088;52.232;5.196;2024-02-14T02:10:01;101231.34;;;9.20;100.00
48267;BME280;34088;52.232;5.196;2024-02-14T02:12:27;101229.59;;;9.22;100.00
48267;BME280;34088;52.232;5.196;2024-02-14T02:14:53;101242.41;;;9.27;100.00
48267;BME280;34088;52.232;5.196;2024-02-14T02:17:18;101232.13;;;9.24;100.00
48267;BME280;34088;52.232;5.196;2024-02-14T02:19:44;101229.44;;;9.28;100.00
48267;BME280;34088;52.232;5.196;2024-02-14T02:22:09;101241.47;;;9.29;100.00
48267;BME280;34088;52.232;5.196;2024-02-14T02:24:35;101244.88;;;9.31;100.00
48267;BME280;34088;52.232;5.196;2024-02-14T02:27:01;101238.88;;;9.31;100.00
48267;BME280;34088;52.232;5.196;2024-02-14T02:29:26;101244.88;;;9.30;100.00
48267;BME280;34088;52.232;5.196;2024-02-14T02:31:51;101243.03;;;9.36;100.00
48267;BME280;34088;52.232;5.196;2024-02-14T02:34:17;101249.13;;;9.34;100.00
48267;BME280;34088;52.232;5.196;2024-02-14T02:36:43;101237.09;;;9.33;100.00
48267;BME280;34088;52.232;5.196;2024-02-14T02:39:11;101241.31;;;9.37;100.00
48267;BME280;34088;52.232;5.196;2024-02-14T02:41:37;101242.13;;;9.37;100.00
48267;BME280;34088;52.232;5.196;2024-02-14T02:44:02;101242.91;;;9.41;100.00
48267;BME280;34088;52.232;5.196;2024-02-14T02:46:30;101254.13;;;9.40;100.00
48267;BME280;34088;52.232;5.196;2024-02-14T02:48:56;101249.84;;;9.39;100.00
48267;BME280;34088;52.232;5.196;2024-02-14T02:51:22;101244.81;;;9.34;100.00
48267;BME280;34088;52.232;5.196;2024-02-14T02:53:47;101245.59;;;9.36;100.00
48267;BME280;34088;52.232;5.196;2024-02-14T02:56:13;101251.59;;;9.38;100.00
48267;BME280;34088;52.232;5.196;2024-02-14T02:58:40;101245.59;;;9.38;100.00
48267;BME280;34088;52.232;5.196;2024-02-14T03:01:08;101251.50;;;9.43;100.00
48267;BME280;34088;52.232;5.196;2024-02-14T03:03:34;101248.06;;;9.41;100.00
48267;BME280;34088;52.232;5.196;2024-02-14T03:06:01;101248.97;;;9.40;100.00
48267;BME280;34088;52.232;5.196;2024-02-14T03:08:28;101255.78;;;9.44;100.00
48267;BME280;34088;52.232;5.196;2024-02-14T03:10:56;101254.09;;;9.43;100.00
48267;BME280;34088;52.232;5.196;2024-02-14T03:13:24;101259.16;;;9.46;100.00
48267;BME280;34088;52.232;5.196;2024-02-14T03:15:50;101254.00;;;9.46;100.00
48267;BME280;34088;52.232;5.196;2024-02-14T03:18:15;101253.25;;;9.41;100.00
48267;BME280;34088;52.232;5.196;2024-02-14T03:20:40;101258.25;;;9.48;100.00
48267;BME280;34088;52.232;5.196;2024-02-14T03:23:06;101257.38;;;9.48;100.00
48267;BME280;34088;52.232;5.196;2024-02-14T03:25:31;101263.38;;;9.50;100.00
48267;BME280;34088;52.232;5.196;2024-02-14T03:27:56;101263.28;;;9.54;100.00
48267;BME280;34088;52.232;5.196;2024-02-14T03:30:22;101266.59;;;9.59;100.00
48267;BME280;34088;52.232;5.196;2024-02-14T03:32:49;101273.50;;;9.58;100.00
48267;BME280;34088;52.232;5.196;2024-02-14T03:35:14;101264.81;;;9.61;100.00
48267;BME280;34088;52.232;5.196;2024-02-14T03:37:41;101266.59;;;9.59;100.00
48267;BME280;34088;52.232;5.196;2024-02-14T03:40:07;101269.06;;;9.63;100.00
48267;BME280;34088;52.232;5.196;2024-02-14T03:42:36;101281.09;;;9.64;100.00
48267;BME280;34088;52.232;5.196;2024-02-14T03:45:05;101273.31;;;9.66;100.00
48267;BME280;34088;52.232;5.196;2024-02-14T03:47:32;101267.50;;;9.58;100.00
48267;BME280;34088;52.232;5.196;2024-02-14T03:50:00;101276.75;;;9.67;100.00
48267;BME280;34088;52.232;5.196;2024-02-14T03:52:27;101276.66;;;9.69;100.00
48267;BME280;34088;52.232;5.196;2024-02-14T03:54:52;101275.00;;;9.67;100.00
48267;BME280;34088;52.232;5.196;2024-02-14T03:57:18;101280.16;;;9.68;100.00
48267;BME280;34088;52.232;5.196;2024-02-14T03:59:43;101269.81;;;9.68;100.00
48267;BME280;34088;52.232;5.196;2024-02-14T04:02:09;101281.78;;;9.73;100.00
48267;BME280;34088;52.232;5.196;2024-02-14T04:04:37;101281.78;;;9.73;100.00
48267;BME280;34088;52.232;5.196;2024-02-14T04:07:04;101279.22;;;9.71;100.00
48267;BME280;34088;52.232;5.196;2024-02-14T04:09:32;101288.69;;;9.72;100.00
48267;BME280;34088;52.232;5.196;2024-02-14T04:11:58;101286.84;;;9.77;100.00
48267;BME280;34088;52.232;5.196;2024-02-14T04:14:23;101289.44;;;9.75;100.00
48267;BME280;34088;52.232;5.196;2024-02-14T04:16:48;101296.31;;;9.76;100.00
48267;BME280;34088;52.232;5.196;2024-02-14T04:19:14;101294.56;;;9.78;100.00
48267;BME280;34088;52.232;5.196;2024-02-14T04:21:42;101297.91;;;9.83;100.00
48267;BME280;34088;52.232;5.196;2024-02-14T04:24:07;101294.38;;;9.86;100.00
48267;BME280;34088;52.232;5.196;2024-02-14T04:26:33;101296.03;;;9.88;100.00
48267;BME280;34088;52.232;5.196;2024-02-14T04:28:58;101302.00;;;9.92;100.00
48267;BME280;34088;52.232;5.196;2024-02-14T04:31:24;101300.28;;;9.91;100.00
48267;BME280;34088;52.232;5.196;2024-02-14T04:33:49;101307.06;;;9.95;100.00
48267;BME280;34088;52.232;5.196;2024-02-14T04:36:20;101309.63;;;9.96;100.00
48267;BME280;34088;52.232;5.196;2024-02-14T04:38:46;101313.06;;;9.97;100.00
48267;BME280;34088;52.232;5.196;2024-02-14T04:41:12;101307.16;;;9.92;100.00
48267;BME280;34088;52.232;5.196;2024-02-14T04:43:37;101309.69;;;9.93;100.00
48267;BME280;34088;52.232;5.196;2024-02-14T04:46:03;101314.00;;;9.94;100.00
48267;BME280;34088;52.232;5.196;2024-02-14T04:48:35;101315.69;;;9.95;100.00
48267;BME280;34088;52.232;5.196;2024-02-14T04:51:00;101323.47;;;9.95;100.00
48267;BME280;34088;52.232;5.196;2024-02-14T04:53:26;101321.66;;;9.97;100.00
48267;BME280;34088;52.232;5.196;2024-02-14T04:55:51;101320.72;;;10.01;100.00
48267;BME280;34088;52.232;5.196;2024-02-14T04:58:17;101324.13;;;10.02;100.00
48267;BME280;34088;52.232;5.196;2024-02-14T05:00:42;101319.09;;;9.97;100.00
48267;BME280;34088;52.232;5.196;2024-02-14T05:03:07;101331.00;;;10.04;100.00
48267;BME280;34088;52.232;5.196;2024-02-14T05:05:35;101332.81;;;9.99;100.00
48267;BME280;34088;52.232;5.196;2024-02-14T05:08:00;101331.91;;;10.02;100.00
48267;BME280;34088;52.232;5.196;2024-02-14T05:10:27;101331.06;;;10.01;100.00
48267;BME280;34088;52.232;5.196;2024-02-14T05:12:53;101337.84;;;10.07;100.00
48267;BME280;34088;52.232;5.196;2024-02-14T05:15:18;101342.09;;;10.09;100.00
48267;BME280;34088;52.232;5.196;2024-02-14T05:17:44;101337.00;;;10.07;100.00
48267;BME280;34088;52.232;5.196;2024-02-14T05:20:09;101344.72;;;10.08;100.00
48267;BME280;34088;52.232;5.196;2024-02-14T05:22:38;101342.09;;;10.09;100.00
48267;BME280;34088;52.232;5.196;2024-02-14T05:25:04;101343.91;;;10.06;100.00
48267;BME280;34088;52.232;5.196;2024-02-14T05:27:33;101347.41;;;10.03;100.00
48267;BME280;34088;52.232;5.196;2024-02-14T05:29:58;101355.06;;;10.08;100.00
48267;BME280;34088;52.232;5.196;2024-02-14T05:32:24;101352.53;;;10.07;100.00
48267;BME280;34088;52.232;5.196;2024-02-14T05:34:50;101355.94;;;10.08;100.00
48267;BME280;34088;52.232;5.196;2024-02-14T05:37:16;101349.94;;;10.07;100.00
48267;BME280;34088;52.232;5.196;2024-02-14T05:39:41;101351.63;;;10.09;100.00
48267;BME280;34088;52.232;5.196;2024-02-14T05:42:07;101358.41;;;10.11;100.00
48267;BME280;34088;52.232;5.196;2024-02-14T05:44:32;101360.97;;;10.13;100.00
48267;BME280;34088;52.232;5.196;2024-02-14T05:46:57;101359.31;;;10.10;100.00
48267;BME280;34088;52.232;5.196;2024-02-14T05:49:23;101354.06;;;10.13;100.00
48267;BME280;34088;52.232;5.196;2024-02-14T05:51:49;101361.84;;;10.13;100.00
48267;BME280;34088;52.232;5.196;2024-02-14T05:54:16;101354.91;;;10.14;100.00
48267;BME280;34088;52.232;5.196;2024-02-14T05:56:41;101366.03;;;10.17;100.00
48267;BME280;34088;52.232;5.196;2024-02-14T05:59:07;101364.34;;;10.16;100.00
48267;BME280;34088;52.232;5.196;2024-02-14T06:01:33;101369.59;;;10.13;100.00
48267;BME280;34088;52.232;5.196;2024-02-14T06:03:58;101369.44;;;10.19;100.00
48267;BME280;34088;52.232;5.196;2024-02-14T06:06:23;101365.97;;;10.20;100.00
48267;BME280;34088;52.232;5.196;2024-02-14T06:08:49;101359.25;;;10.13;100.00
48267;BME280;34088;52.232;5.196;2024-02-14T06:11:14;101368.50;;;10.23;100.00
48267;BME280;34088;52.232;5.196;2024-02-14T06:13:41;101366.78;;;10.22;100.00
48267;BME280;34088;52.232;5.196;2024-02-14T06:16:06;101374.53;;;10.22;100.00
48267;BME280;34088;52.232;5.196;2024-02-14T06:18:33;101380.56;;;10.23;100.00
48267;BME280;34088;52.232;5.196;2024-02-14T06:20:59;101384.81;;;10.25;100.00
48267;BME280;34088;52.232;5.196;2024-02-14T06:23:25;101377.97;;;10.24;100.00
48267;BME280;34088;52.232;5.196;2024-02-14T06:25:50;101391.81;;;10.22;100.00
48267;BME280;34088;52.232;5.196;2024-02-14T06:28:15;101390.81;;;10.27;100.00
48267;BME280;34088;52.232;5.196;2024-02-14T06:30:41;101393.53;;;10.21;100.00
48267;BME280;34088;52.232;5.196;2024-02-14T06:33:06;101384.88;;;10.22;100.00
48267;BME280;34088;52.232;5.196;2024-02-14T06:35:31;101399.56;;;10.23;100.00
48267;BME280;34088;52.232;5.196;2024-02-14T06:37:57;101397.72;;;10.27;100.00
48267;BME280;34088;52.232;5.196;2024-02-14T06:40:22;101408.03;;;10.28;100.00
48267;BME280;34088;52.232;5.196;2024-02-14T06:42:47;101401.16;;;10.27;100.00
48267;BME280;34088;52.232;5.196;2024-02-14T06:45:15;101414.03;;;10.30;100.00
48267;BME280;34088;52.232;5.196;2024-02-14T06:47:41;101418.28;;;10.33;100.00
48267;BME280;34088;52.232;5.196;2024-02-14T06:50:06;101414.06;;;10.29;100.00
48267;BME280;34088;52.232;5.196;2024-02-14T06:52:33;101418.34;;;10.30;100.00
48267;BME280;34088;52.232;5.196;2024-02-14T06:54:58;101412.25;;;10.32;100.00
48267;BME280;34088;52.232;5.196;2024-02-14T06:57:23;101420.97;;;10.28;100.00
48267;BME280;34088;52.232;5.196;2024-02-14T06:59:49;101418.22;;;10.34;100.00
48267;BME280;34088;52.232;5.196;2024-02-14T07:02:14;101415.69;;;10.33;100.00
48267;BME280;34088;52.232;5.196;2024-02-14T07:04:39;101397.88;;;10.21;100.00
48267;BME280;34088;52.232;5.196;2024-02-14T07:07:05;101419.97;;;10.34;100.00
48267;BME280;34088;52.232;5.196;2024-02-14T07:09:31;101425.16;;;10.34;100.00
48267;BME280;34088;52.232;5.196;2024-02-14T07:11:57;101431.22;;;10.33;100.00
48267;BME280;34088;52.232;5.196;2024-02-14T07:14:23;101429.44;;;10.35;100.00
48267;BME280;34088;52.232;5.196;2024-02-14T07:16:48;101436.28;;;10.37;100.00
48267;BME280;34088;52.232;5.196;2024-02-14T07:19:14;101435.56;;;10.31;100.00
48267;BME280;34088;52.232;5.196;2024-02-14T07:21:39;101440.72;;;10.32;100.00
48267;BME280;34088;52.232;5.196;2024-02-14T07:24:05;101444.19;;;10.31;100.00
48267;BME280;34088;52.232;5.196;2024-02-14T07:26:30;101439.00;;;10.33;100.00
48267;BME280;34088;52.232;5.196;2024-02-14T07:28:55;101438.09;;;10.34;100.00
48267;BME280;34088;52.232;5.196;2024-02-14T07:31:21;101442.38;;;10.35;100.00
48267;BME280;34088;52.232;5.196;2024-02-14T07:33:46;101433.81;;;10.33;100.00
48267;BME280;34088;52.232;5.196;2024-02-14T07:36:13;101444.97;;;10.35;100.00
48267;BME280;34088;52.232;5.196;2024-02-14T07:38:39;101438.75;;;10.42;100.00
48267;BME280;34088;52.232;5.196;2024-02-14T07:41:04;101441.34;;;10.42;100.00
48267;BME280;34088;52.232;5.196;2024-02-14T07:43:29;101450.03;;;10.39;100.00
48267;BME280;34088;52.232;5.196;2024-02-14T07:45:54;101445.72;;;10.40;100.00
48267;BME280;34088;52.232;5.196;2024-02-14T07:48:20;101445.69;;;10.41;100.00
48267;BME280;34088;52.232;5.196;2024-02-14T07:50:47;101443.00;;;10.44;100.00
48267;BME280;34088;52.232;5.196;2024-02-14T07:53:13;101449.06;;;10.43;100.00
48267;BME280;34088;52.232;5.196;2024-02-14T07:55:38;101452.44;;;10.47;100.00
48267;BME280;34088;52.232;5.196;2024-02-14T07:58:05;101459.34;;;10.46;100.00
48267;BME280;34088;52.232;5.196;2024-02-14T08:00:30;101444.66;;;10.47;100.00
48267;BME280;34088;52.232;5.196;2024-02-14T08:02:55;101453.31;;;10.46;100.00
48267;BME280;34088;52.232;5.196;2024-02-14T08:05:21;101459.44;;;10.43;100.00
48267;BME280;34088;52.232;5.196;2024-02-14T08:07:46;101463.72;;;10.44;100.00
48267;BME280;34088;52.232;5.196;2024-02-14T08:10:11;101463.56;;;10.50;100.00
48267;BME280;34088;52.232;5.196;2024-02-14T08:12:36;101461.06;;;10.47;100.00
48267;BME280;34088;52.232;5.196;2024-02-14T08:15:02;101465.34;;;10.48;100.00
48267;BME280;34088;52.232;5.196;2024-02-14T08:17:31;101458.38;;;10.50;100.00
48267;BME280;34088;52.232;5.196;2024-02-14T08:19:56;101466.16;;;10.50;100.00
48267;BME280;34088;52.232;5.196;2024-02-14T08:22:21;101476.44;;;10.53;100.00
48267;BME280;34088;52.232;5.196;2024-02-14T08:24:47;101478.94;;;10.56;100.00
48267;BME280;34088;52.232;5.196;2024-02-14T08:27:12;101478.81;;;10.61;100.00
48267;BME280;34088;52.232;5.196;2024-02-14T08:29:38;101479.72;;;10.60;100.00
48267;BME280;34088;52.232;5.196;2024-02-14T08:32:03;101475.47;;;10.57;100.00
48267;BME280;34088;52.232;5.196;2024-02-14T08:34:30;101482.44;;;10.55;100.00
48267;BME280;34088;52.232;5.196;2024-02-14T08:36:55;101483.06;;;10.65;100.00
48267;BME280;34088;52.232;5.196;2024-02-14T08:39:20;101481.19;;;10.70;100.00
48267;BME280;34088;52.232;5.196;2024-02-14T08:41:46;101482.13;;;10.67;100.00
48267;BME280;34088;52.232;5.196;2024-02-14T08:44:12;101482.88;;;10.72;100.00
48267;BME280;34088;52.232;5.196;2024-02-14T08:46:37;101485.47;;;10.72;100.00
48267;BME280;34088;52.232;5.196;2024-02-14T08:49:04;101481.06;;;10.74;100.00
48267;BME280;34088;52.232;5.196;2024-02-14T08:51:34;101470.88;;;10.68;100.00
48267;BME280;34088;52.232;5.196;2024-02-14T08:53:59;101478.31;;;10.82;100.00
48267;BME280;34088;52.232;5.196;2024-02-14T08:56:25;101487.88;;;10.78;100.00
48267;BME280;34088;52.232;5.196;2024-02-14T08:58:50;101484.66;;;10.70;100.00
48267;BME280;34088;52.232;5.196;2024-02-14T09:01:16;101486.41;;;10.68;100.00
48267;BME280;34088;52.232;5.196;2024-02-14T09:03:42;101491.56;;;10.70;100.00
48267;BME280;34088;52.232;5.196;2024-02-14T09:06:12;101488.81;;;10.76;100.00
48267;BME280;34088;52.232;5.196;2024-02-14T09:08:38;101495.63;;;10.80;100.00
48267;BME280;34088;52.232;5.196;2024-02-14T09:11:03;101493.81;;;10.83;100.00
48267;BME280;34088;52.232;5.196;2024-02-14T09:13:28;101502.38;;;10.85;100.00
48267;BME280;34088;52.232;5.196;2024-02-14T09:15:53;101507.66;;;10.82;100.00
48267;BME280;34088;52.232;5.196;2024-02-14T09:18:19;101503.28;;;10.84;100.00
48267;BME280;34088;52.232;5.196;2024-02-14T09:20:45;101507.59;;;10.84;100.00
48267;BME280;34088;52.232;5.196;2024-02-14T09:23:12;101508.63;;;10.78;100.00
48267;BME280;34088;52.232;5.196;2024-02-14T09:25:39;101495.69;;;10.77;100.00
48267;BME280;34088;52.232;5.196;2024-02-14T09:28:05;101511.91;;;10.85;100.00
48267;BME280;34088;52.232;5.196;2024-02-14T09:30:31;101516.38;;;10.78;100.00
48267;BME280;34088;52.232;5.196;2024-02-14T09:32:57;101518.69;;;10.89;100.00
48267;BME280;34088;52.232;5.196;2024-02-14T09:35:22;101518.63;;;10.92;100.00
48267;BME280;34088;52.232;5.196;2024-02-14T09:37:49;101513.59;;;10.87;100.00
48267;BME280;34088;52.232;5.196;2024-02-14T09:40:14;101516.84;;;10.94;100.00
48267;BME280;34088;52.232;5.196;2024-02-14T09:42:53;101510.00;;;10.91;100.00
48267;BME280;34088;52.232;5.196;2024-02-14T09:45:20;101506.28;;;11.01;100.00
48267;BME280;34088;52.232;5.196;2024-02-14T09:47:45;101513.09;;;11.05;100.00
48267;BME280;34088;52.232;5.196;2024-02-14T09:50:12;101517.41;;;11.06;100.00
48267;BME280;34088;52.232;5.196;2024-02-14T09:52:37;101526.13;;;11.02;100.00
48267;BME280;34088;52.232;5.196;2024-02-14T09:55:03;101520.22;;;10.97;100.00
48267;BME280;34088;52.232;5.196;2024-02-14T09:57:31;101519.44;;;10.94;100.00
48267;BME280;34088;52.232;5.196;2024-02-14T09:59:58;101518.47;;;10.98;100.00
48267;BME280;34088;52.232;5.196;2024-02-14T10:02:25;101526.25;;;10.98;100.00
48267;BME280;34088;52.232;5.196;2024-02-14T10:04:50;101532.22;;;11.01;100.00
48267;BME280;34088;52.232;5.196;2024-02-14T10:07:15;101534.06;;;10.96;100.00
48267;BME280;34088;52.232;5.196;2024-02-14T10:09:41;101523.50;;;11.04;100.00
48267;BME280;34088;52.232;5.196;2024-02-14T10:12:10;101514.84;;;11.05;100.00
48267;BME280;34088;52.232;5.196;2024-02-14T10:14:35;101517.38;;;11.08;100.00
48267;BME280;34088;52.232;5.196;2024-02-14T10:17:02;101523.25;;;11.13;100.00
48267;BME280;34088;52.232;5.196;2024-02-14T10:19:28;101524.91;;;11.15;100.00
48267;BME280;34088;52.232;5.196;2024-02-14T10:21:59;101526.69;;;11.15;100.00
48267;BME280;34088;52.232;5.196;2024-02-14T10:24:28;101528.41;;;11.14;100.00
48267;BME280;34088;52.232;5.196;2024-02-14T10:26:53;101525.75;;;11.17;100.00
48267;BME280;34088;52.232;5.196;2024-02-14T10:29:22;101534.31;;;11.19;100.00
48267;BME280;34088;52.232;5.196;2024-02-14T10:31:48;101529.06;;;11.22;100.00
48267;BME280;34088;52.232;5.196;2024-02-14T10:34:13;101538.56;;;11.22;100.00
48267;BME280;34088;52.232;5.196;2024-02-14T10:36:39;101540.38;;;11.20;100.00
48267;BME280;34088;52.232;5.196;2024-02-14T10:39:07;101536.13;;;11.17;100.00
48267;BME280;34088;52.232;5.196;2024-02-14T10:41:35;101542.97;;;11.20;100.00
48267;BME280;34088;52.232;5.196;2024-02-14T10:44:03;101538.56;;;11.22;100.00
48267;BME280;34088;52.232;5.196;2024-02-14T10:46:31;101550.47;;;11.29;100.00
48267;BME280;34088;52.232;5.196;2024-02-14T10:49:03;101539.19;;;11.31;100.00
48267;BME280;34088;52.232;5.196;2024-02-14T10:51:31;101542.56;;;11.33;100.00
48267;BME280;34088;52.232;5.196;2024-02-14T10:53:58;101537.34;;;11.35;100.00
48267;BME280;34088;52.232;5.196;2024-02-14T10:56:28;101537.38;;;11.33;100.00
48267;BME280;34088;52.232;5.196;2024-02-14T10:58:56;101540.72;;;11.38;100.00
48267;BME280;34088;52.232;5.196;2024-02-14T11:01:24;101544.84;;;11.45;100.00
48267;BME280;34088;52.232;5.196;2024-02-14T11:03:51;101534.59;;;11.41;100.00
48267;BME280;34088;52.232;5.196;2024-02-14T11:06:16;101534.44;;;11.47;100.00
48267;BME280;34088;52.232;5.196;2024-02-14T11:08:53;101528.66;;;11.37;100.00
48267;BME280;34088;52.232;5.196;2024-02-14T11:11:18;101531.03;;;11.45;100.00
48267;BME280;34088;52.232;5.196;2024-02-14T11:13:43;101537.19;;;11.41;100.00
48267;BME280;34088;52.232;5.196;2024-02-14T11:16:09;101533.66;;;11.43;100.00
48267;BME280;34088;52.232;5.196;2024-02-14T11:18:34;101533.47;;;11.51;100.00
48267;BME280;34088;52.232;5.196;2024-02-14T11:21:03;101529.97;;;11.52;100.00
48267;BME280;34088;52.232;5.196;2024-02-14T11:23:30;101522.13;;;11.55;100.00
48267;BME280;34088;52.232;5.196;2024-02-14T11:26:03;101515.94;;;11.60;100.00
48267;BME280;34088;52.232;5.196;2024-02-14T11:28:29;101512.38;;;11.64;100.00
48267;BME280;34088;52.232;5.196;2024-02-14T11:30:58;101519.22;;;11.67;100.00
48267;BME280;34088;52.232;5.196;2024-02-14T11:33:26;101523.66;;;11.63;100.00
48267;BME280;34088;52.232;5.196;2024-02-14T11:35:51;101521.88;;;11.64;100.00
48267;BME280;34088;52.232;5.196;2024-02-14T11:38:21;101508.22;;;11.57;100.00
48267;BME280;34088;52.232;5.196;2024-02-14T11:40:47;101520.06;;;11.67;100.00
48267;BME280;34088;52.232;5.196;2024-02-14T11:43:16;101524.53;;;11.62;100.00
48267;BME280;34088;52.232;5.196;2024-02-14T11:45:48;101515.72;;;11.68;100.00
48267;BME280;34088;52.232;5.196;2024-02-14T11:48:20;101518.38;;;11.66;100.00
48267;BME280;34088;52.232;5.196;2024-02-14T11:50:46;101510.69;;;11.63;100.00
48267;BME280;34088;52.232;5.196;2024-02-14T11:53:12;101504.44;;;11.70;100.00
48267;BME280;34088;52.232;5.196;2024-02-14T11:55:39;101508.75;;;11.70;100.00
48267;BME280;34088;52.232;5.196;2024-02-14T11:58:11;101513.09;;;11.69;100.00
48267;BME280;34088;52.232;5.196;2024-02-14T12:00:41;101509.47;;;11.75;100.00
48267;BME280;34088;52.232;5.196;2024-02-14T12:03:10;101518.97;;;11.74;100.00
48267;BME280;34088;52.232;5.196;2024-02-14T12:05:37;101513.03;;;11.71;100.00
48267;BME280;34088;52.232;5.196;2024-02-14T12:08:06;101502.44;;;11.78;100.00
48267;BME280;34088;52.232;5.196;2024-02-14T12:10:32;101501.72;;;11.73;100.00
48267;BME280;34088;52.232;5.196;2024-02-14T12:12:58;101498.34;;;11.71;100.00
48267;BME280;34088;52.232;5.196;2024-02-14T12:15:26;101500.78;;;11.76;100.00
48267;BME280;34088;52.232;5.196;2024-02-14T12:17:51;101505.16;;;11.75;100.00
48267;BME280;34088;52.232;5.196;2024-02-14T12:20:21;101509.47;;;11.75;100.00
48267;BME280;34088;52.232;5.196;2024-02-14T12:22:50;101504.38;;;11.72;100.00
48267;BME280;34088;52.232;5.196;2024-02-14T12:25:15;101507.56;;;11.81;100.00
48267;BME280;34088;52.232;5.196;2024-02-14T12:27:41;101510.00;;;11.86;100.00
48267;BME280;34088;52.232;5.196;2024-02-14T12:30:06;101493.66;;;11.84;100.00
48267;BME280;34088;52.232;5.196;2024-02-14T12:32:32;101497.94;;;11.85;100.00
48267;BME280;34088;52.232;5.196;2024-02-14T12:34:58;101495.31;;;11.86;100.00
48267;BME280;34088;52.232;5.196;2024-02-14T12:37:24;101500.44;;;11.88;100.00
48267;BME280;34088;52.232;5.196;2024-02-14T12:39:49;101497.75;;;11.91;100.00
48267;BME280;34088;52.232;5.196;2024-02-14T12:42:14;101498.84;;;11.84;100.00
48267;BME280;34088;52.232;5.196;2024-02-14T12:44:40;101500.56;;;11.83;100.00
48267;BME280;34088;52.232;5.196;2024-02-14T12:47:05;101495.34;;;11.85;100.00
48267;BME280;34088;52.232;5.196;2024-02-14T12:49:31;101497.81;;;11.89;100.00